Time;durP1;ratioP1;P1;durP2;ratioP2;P2;SDS_P1;SDS_P2;PMS_P1;PMS_P2;Temp;Humidity;BMP_temperature;BMP_pressure;BME280_temperature;BME280_humidity;BME280_pressure;Samples;Min_cycle;Max_cycle;Signal;HPM_P1;HPM_P2
2023/03/16 00:00:31;;;;;;;0.70;0.70;;;;;;;0.56;94.45;97213.22;29373;222;63004;-54
2023/03/16 00:01:05;;;;;;;0.60;0.60;;;;;;;0.54;94.72;97220.66;29373;202;63008;-54
2023/03/16 00:01:36;;;;;;;0.70;0.70;;;;;;;0.55;94.67;97210.78;29373;324;63005;-54
2023/03/16 00:02:09;;;;;;;0.65;0.65;;;;;;;0.56;94.93;97210.56;29373;199;63009;-54
2023/03/16 00:02:41;;;;;;;0.68;0.68;;;;;;;0.57;94.70;97212.19;29371;313;64009;-54
2023/03/16 00:03:17;;;;;;;0.70;0.70;;;;;;;0.58;94.83;97213.00;29373;220;63009;-54
2023/03/16 00:03:49;;;;;;;0.62;0.62;;;;;;;0.55;94.70;97216.94;29373;203;63005;-54
2023/03/16 00:04:20;;;;;;;0.70;0.70;;;;;;;0.54;94.38;97215.31;29371;215;64013;-64
2023/03/16 00:04:52;;;;;;;0.60;0.60;;;;;;;0.54;94.45;97209.97;29373;297;63005;-54
2023/03/16 00:05:24;;;;;;;0.60;0.60;;;;;;;0.55;94.82;97211.59;29373;250;63009;-54
2023/03/16 00:05:56;;;;;;;0.60;0.60;;;;;;;0.54;94.86;97215.31;29371;268;64009;-54
2023/03/16 00:06:27;;;;;;;0.70;0.70;;;;;;;0.52;94.56;97212.03;29373;221;63009;-55
2023/03/16 00:06:58;;;;;;;0.60;0.60;;;;;;;0.52;94.60;97217.38;29373;227;63004;-55
2023/03/16 00:07:30;;;;;;;0.60;0.60;;;;;;;0.52;95.04;97222.72;29373;196;63009;-54
2023/03/16 00:08:01;;;;;;;0.60;0.60;;;;;;;0.50;95.06;97219.47;29371;196;64009;-54
2023/03/16 00:08:34;;;;;;;0.60;0.60;;;;;;;0.51;94.94;97215.75;29373;208;63008;-54
2023/03/16 00:09:06;;;;;;;0.60;0.60;;;;;;;0.51;94.81;97220.28;29373;206;63004;-54
2023/03/16 00:09:41;;;;;;;0.60;0.60;;;;;;;0.50;94.60;97219.47;29373;197;63025;-54
2023/03/16 00:10:12;;;;;;;0.70;0.70;;;;;;;0.47;94.41;97219.06;29373;214;63005;-55
2023/03/16 00:10:46;;;;;;;0.60;0.60;;;;;;;0.45;94.41;97211.28;29371;199;64014;-53
2023/03/16 00:11:17;;;;;;;0.60;0.60;;;;;;;0.46;94.82;97218.25;29373;203;63005;-53
2023/03/16 00:11:48;;;;;;;0.55;0.55;;;;;;;0.45;94.56;97211.28;29373;198;63019;-54
2023/03/16 00:12:21;;;;;;;0.70;0.70;;;;;;;0.46;94.98;97217.44;29373;236;63005;-53
2023/03/16 00:12:53;;;;;;;0.62;0.62;;;;;;;0.45;95.04;97216.63;29373;231;63009;-53
2023/03/16 00:13:25;;;;;;;0.70;0.70;;;;;;;0.45;94.84;97216.63;29373;305;63011;-53
2023/03/16 00:13:57;;;;;;;0.60;0.60;;;;;;;0.47;95.22;97219.06;29373;223;63009;-53
2023/03/16 00:14:30;;;;;;;0.60;0.60;;;;;;;0.46;95.21;97212.91;29373;212;63004;-53
2023/03/16 00:15:01;;;;;;;0.60;0.60;;;;;;;0.47;94.87;97209.22;29371;260;64013;-54
2023/03/16 00:15:34;;;;;;;0.65;0.65;;;;;;;0.47;94.78;97216.41;29373;299;63004;-55
2023/03/16 00:16:06;;;;;;;0.60;0.60;;;;;;;0.48;95.14;97210.84;29373;196;63008;-54
2023/03/16 00:16:38;;;;;;;0.60;0.60;;;;;;;0.49;94.73;97212.47;29371;210;64008;-53
2023/03/16 00:17:17;;;;;;;0.70;0.70;;;;;;;0.47;94.86;97209.22;29373;211;63009;-54
2023/03/16 00:17:49;;;;;;;0.60;0.60;;;;;;;0.46;94.54;97220.94;29371;239;64009;-53
2023/03/16 00:18:22;;;;;;;0.70;0.70;;;;;;;0.44;94.89;97215.00;29373;222;63009;-54
2023/03/16 00:18:53;;;;;;;0.60;0.60;;;;;;;0.43;94.45;97207.19;29373;208;63005;-62
2023/03/16 00:19:24;;;;;;;0.60;0.60;;;;;;;0.43;94.59;97210.69;29371;272;64013;-53
2023/03/16 00:19:56;;;;;;;0.62;0.62;;;;;;;0.42;94.69;97211.72;29371;271;64009;-54
2023/03/16 00:20:27;;;;;;;0.60;0.60;;;;;;;0.43;94.86;97216.03;29373;204;63009;-55
2023/03/16 00:21:04;;;;;;;0.70;0.70;;;;;;;0.42;94.59;97209.06;29373;202;63004;-54
2023/03/16 00:21:35;;;;;;;0.70;0.70;;;;;;;0.42;94.63;97217.06;29373;223;63009;-64
2023/03/16 00:22:07;;;;;;;0.65;0.65;;;;;;;0.42;94.53;97217.06;29373;210;63004;-53
2023/03/16 00:22:39;;;;;;;0.60;0.60;;;;;;;0.42;94.59;97213.56;29373;230;63009;-54
2023/03/16 00:23:10;;;;;;;0.70;0.70;;;;;;;0.42;94.68;97217.06;29373;238;63004;-55
2023/03/16 00:23:42;;;;;;;0.70;0.70;;;;;;;0.42;95.08;97217.06;29373;216;63008;-62
2023/03/16 00:24:16;;;;;;;0.60;0.60;;;;;;;0.44;94.71;97215.00;29373;229;63005;-54
2023/03/16 00:24:48;;;;;;;0.70;0.70;;;;;;;0.43;94.88;97213.34;29373;198;63009;-63
2023/03/16 00:25:19;;;;;;;0.70;0.70;;;;;;;0.42;94.92;97219.72;29371;233;64009;-54
2023/03/16 00:25:52;;;;;;;0.70;0.70;;;;;;;0.44;95.02;97216.84;29373;208;63009;-54
2023/03/16 00:26:24;;;;;;;0.70;0.70;;;;;;;0.44;94.76;97209.66;29373;223;63005;-54
2023/03/16 00:26:56;;;;;;;0.60;0.60;;;;;;;0.43;94.45;97212.53;29373;219;63013;-53
2023/03/16 00:27:28;;;;;;;0.70;0.70;;;;;;;0.42;94.71;97211.72;29371;228;64009;-54
2023/03/16 00:28:03;;;;;;;0.70;0.70;;;;;;;0.43;94.68;97208.03;29373;199;63009;-54
2023/03/16 00:28:35;;;;;;;0.70;0.70;;;;;;;0.44;94.26;97212.31;29373;255;63004;-53
2023/03/16 00:29:07;;;;;;;0.60;0.60;;;;;;;0.45;94.43;97205.94;29373;197;63009;-53
2023/03/16 00:29:38;;;;;;;0.70;0.70;;;;;;;0.45;94.47;97211.28;29373;204;63004;-54
2023/03/16 00:30:11;;;;;;;0.70;0.70;;;;;;;0.45;94.55;97211.28;29373;242;63009;-54
2023/03/16 00:30:46;;;;;;;0.60;0.60;;;;;;;0.44;94.30;97209.66;29373;202;63004;-55
2023/03/16 00:31:20;;;;;;;0.60;0.60;;;;;;;0.44;94.54;97215.00;29373;222;63008;-55
2023/03/16 00:31:52;;;;;;;0.62;0.62;;;;;;;0.42;94.67;97209.06;29371;223;64009;-54
2023/03/16 00:32:27;;;;;;;0.70;0.70;;;;;;;0.42;94.73;97209.06;29373;211;63013;-54
2023/03/16 00:33:00;;;;;;;0.70;0.70;;;;;;;0.41;94.72;97209.28;29373;207;63005;-54
2023/03/16 00:33:35;;;;;;;0.70;0.70;;;;;;;0.41;94.75;97210.09;29373;207;63009;-54
2023/03/16 00:34:06;;;;;;;0.60;0.60;;;;;;;0.40;94.42;97208.47;29373;223;63005;-54
2023/03/16 00:34:37;;;;;;;0.60;0.60;;;;;;;0.40;94.68;97210.31;29373;202;63009;-55
2023/03/16 00:35:09;;;;;;;0.70;0.70;;;;;;;0.38;94.53;97210.53;29373;200;63005;-54
2023/03/16 00:35:50;;;;;;;0.70;0.70;;;;;;;0.39;94.42;97204.16;29371;283;64013;-54
2023/03/16 00:36:23;;;;;;;0.60;0.60;;;;;;;0.40;94.39;97211.13;29373;210;63004;-54
2023/03/16 00:36:54;;;;;;;0.60;0.60;;;;;;;0.41;94.45;97210.09;29373;218;63009;-54
2023/03/16 00:37:26;;;;;;;0.60;0.60;;;;;;;0.41;94.30;97212.75;29373;212;63004;-55
2023/03/16 00:37:58;;;;;;;0.60;0.60;;;;;;;0.40;94.28;97213.78;29371;211;64013;-56
2023/03/16 00:38:33;;;;;;;0.65;0.65;;;;;;;0.39;94.20;97219.34;29373;218;63004;-55
2023/03/16 00:39:09;;;;;;;0.68;0.68;;;;;;;0.38;94.39;97215.06;29373;318;63008;-55
2023/03/16 00:39:42;;;;;;;0.60;0.60;;;;;;;0.38;94.13;97220.38;29373;204;63005;-62
2023/03/16 00:40:17;;;;;;;0.70;0.70;;;;;;;0.36;94.53;97217.13;29373;200;63009;-53
2023/03/16 00:40:50;;;;;;;0.60;0.60;;;;;;;0.35;94.37;97215.53;29373;226;63007;-53
2023/03/16 00:41:21;;;;;;;0.60;0.60;;;;;;;0.35;94.56;97221.66;29373;316;63009;-53
2023/03/16 00:41:57;;;;;;;0.70;0.70;;;;;;;0.34;94.19;97225.38;29373;196;63000;-53
2023/03/16 00:42:30;;;;;;;0.70;0.70;;;;;;;0.33;94.58;97218.41;29373;199;63009;-53
2023/03/16 00:43:04;;;;;;;0.60;0.60;;;;;;;0.31;94.67;97220.47;29371;321;64009;-53
2023/03/16 00:43:44;;;;;;;0.60;0.60;;;;;;;0.30;94.74;97225.00;29373;240;63009;-54
2023/03/16 00:44:15;;;;;;;0.68;0.68;;;;;;;0.29;95.01;97217.22;29371;244;64009;-53
2023/03/16 00:44:46;;;;;;;0.60;0.60;;;;;;;0.28;94.87;97218.25;29373;363;63009;-53
2023/03/16 00:45:18;;;;;;;0.70;0.70;;;;;;;0.27;95.24;97213.94;29373;197;63004;-53
2023/03/16 00:45:51;;;;;;;0.70;0.70;;;;;;;0.25;95.32;97216.84;29373;246;63008;-54
2023/03/16 00:46:25;;;;;;;0.60;0.60;;;;;;;0.24;95.54;97209.03;29371;358;64008;-54
2023/03/16 00:46:56;;;;;;;0.70;0.70;;;;;;;0.20;95.52;97214.00;29373;202;63009;-54
2023/03/16 00:47:31;;;;;;;0.60;0.60;;;;;;;0.19;95.54;97214.22;29373;203;63005;-54
2023/03/16 00:48:03;;;;;;;0.70;0.70;;;;;;;0.18;95.88;97220.59;29373;214;63009;-55
2023/03/16 00:48:41;;;;;;;0.70;0.70;;;;;;;0.19;96.00;97223.03;29371;252;64009;-54
2023/03/16 00:49:12;;;;;;;0.60;0.60;;;;;;;0.16;95.67;97222.66;29373;225;63009;-53
2023/03/16 00:49:44;;;;;;;0.60;0.60;;;;;;;0.13;95.73;97215.09;29373;211;63005;-53
2023/03/16 00:50:16;;;;;;;0.70;0.70;;;;;;;0.12;96.16;97216.12;29373;227;63009;-54
2023/03/16 00:50:47;;;;;;;0.60;0.60;;;;;;;0.10;96.12;97213.66;29373;205;63004;-53
2023/03/16 00:51:18;;;;;;;0.60;0.60;;;;;;;0.09;96.00;97217.38;29371;259;64013;-54
2023/03/16 00:51:50;;;;;;;0.60;0.60;;;;;;;0.06;96.10;97209.81;29373;247;63004;-54
2023/03/16 00:52:22;;;;;;;0.60;0.60;;;;;;;0.06;96.58;97219.66;29373;263;63009;-54
2023/03/16 00:52:53;;;;;;;0.60;0.60;;;;;;;0.05;96.19;97215.34;29373;225;63004;-55
2023/03/16 00:53:25;;;;;;;0.60;0.60;;;;;;;0.04;96.30;97205.72;29373;206;63008;-54
2023/03/16 00:54:01;;;;;;;0.70;0.70;;;;;;;0.03;96.38;97212.09;29373;257;63005;-54
2023/03/16 00:55:38;;;;;;;0.64;0.64;;;;;;;0.00;96.53;97208.81;88178;196;64004;-54
2023/03/16 00:56:11;;;;;;;0.70;0.70;;;;;;;0.03;96.75;97212.09;29394;204;64009;-55
2023/03/16 00:56:44;;;;;;;0.60;0.60;;;;;;;0.03;96.61;97206.75;29371;221;64009;-54
2023/03/16 00:57:17;;;;;;;0.60;0.60;;;;;;;0.04;96.85;97203.06;29373;226;63009;-54
2023/03/16 00:57:48;;;;;;;0.70;0.70;;;;;;;0.07;96.74;97208.75;29371;220;64009;-64
2023/03/16 00:58:20;;;;;;;0.60;0.60;;;;;;;0.09;96.44;97211.22;29373;234;63008;-54
2023/03/16 00:58:56;;;;;;;0.65;0.65;;;;;;;0.11;96.21;97214.50;29373;221;63004;-54
2023/03/16 00:59:29;;;;;;;0.70;0.70;;;;;;;0.13;96.12;97212.41;29373;338;63009;-55
2023/03/16 01:00:11;;;;;;;0.70;0.70;;;;;;;0.14;96.05;97211.37;29371;221;64009;-54
2023/03/16 01:00:42;;;;;;;0.70;0.70;;;;;;;0.15;95.88;97205.81;29373;207;63015;-54
2023/03/16 01:01:18;;;;;;;0.70;0.70;;;;;;;0.14;95.46;97208.72;29371;242;64008;-54
2023/03/16 01:01:51;;;;;;;0.70;0.70;;;;;;;0.11;95.66;97206.47;29373;211;63009;-63
2023/03/16 01:02:23;;;;;;;0.70;0.70;;;;;;;0.11;95.56;97203.81;29373;219;63005;-54
2023/03/16 01:02:55;;;;;;;0.70;0.70;;;;;;;0.13;95.37;97209.75;29373;228;63009;-54
2023/03/16 01:03:26;;;;;;;0.70;0.70;;;;;;;0.16;95.74;97211.97;29373;356;63005;-54
2023/03/16 01:04:01;;;;;;;0.60;0.60;;;;;;;0.18;95.53;97204.56;29373;212;63009;-55
2023/03/16 01:04:34;;;;;;;0.60;0.60;;;;;;;0.22;95.84;97211.13;29373;282;63005;-54
2023/03/16 01:05:08;;;;;;;0.70;0.70;;;;;;;0.25;95.16;97208.00;29373;199;63009;-54
2023/03/16 01:05:40;;;;;;;0.95;0.95;;;;;;;0.26;95.02;97201.63;29371;221;64009;-54
2023/03/16 01:06:15;;;;;;;0.60;0.60;;;;;;;0.28;94.88;97210.25;29371;224;64013;-54
2023/03/16 01:06:48;;;;;;;0.70;0.70;;;;;;;0.30;94.74;97213.50;29373;261;63004;-63
2023/03/16 01:07:23;;;;;;;0.60;0.60;;;;;;;0.31;94.76;97215.12;29373;202;63009;-55
2023/03/16 01:07:54;;;;;;;0.70;0.70;;;;;;;0.30;94.58;97217.00;29373;240;63004;-54
2023/03/16 01:08:29;;;;;;;0.55;0.55;;;;;;;0.31;94.20;97210.63;29373;202;63008;-54
2023/03/16 01:09:01;;;;;;;0.70;0.70;;;;;;;0.31;94.29;97212.47;29373;196;63004;-54
2023/03/16 01:09:35;;;;;;;0.70;0.70;;;;;;;0.32;94.37;97211.44;29373;199;63009;-54
2023/03/16 01:10:08;;;;;;;0.70;0.70;;;;;;;0.32;94.18;97206.09;29373;254;63005;-54
2023/03/16 01:10:39;;;;;;;0.70;0.70;;;;;;;0.32;94.05;97206.09;29373;236;63023;-54
2023/03/16 01:11:17;;;;;;;0.70;0.70;;;;;;;0.32;94.17;97206.09;29371;199;64009;-54
2023/03/16 01:11:52;;;;;;;0.62;0.62;;;;;;;0.31;94.44;97209.81;29373;216;63009;-55
2023/03/16 01:12:23;;;;;;;0.60;0.60;;;;;;;0.31;94.34;97204.47;29373;294;63005;-54
2023/03/16 01:12:55;;;;;;;0.70;0.70;;;;;;;0.31;94.27;97204.47;29373;252;63009;-64
2023/03/16 01:13:26;;;;;;;0.60;0.60;;;;;;;0.30;94.07;97205.50;29373;214;63004;-64
2023/03/16 01:13:57;;;;;;;0.70;0.70;;;;;;;0.28;94.34;97204.91;29373;230;63009;-54
2023/03/16 01:14:28;;;;;;;0.60;0.60;;;;;;;0.29;94.26;97202.00;29373;199;63004;-54
2023/03/16 01:15:00;;;;;;;0.60;0.60;;;;;;;0.29;94.19;97206.53;29373;197;63009;-54
2023/03/16 01:15:33;;;;;;;0.70;0.70;;;;;;;0.28;94.57;97210.25;29373;274;63004;-54
2023/03/16 01:16:06;;;;;;;0.60;0.60;;;;;;;0.29;94.25;97209.22;29371;206;64013;-54
2023/03/16 01:16:38;;;;;;;0.65;0.65;;;;;;;0.29;94.48;97207.34;29371;228;64008;-54
2023/03/16 01:17:12;;;;;;;0.68;0.68;;;;;;;0.29;94.68;97204.69;29373;280;63009;-54
2023/03/16 01:17:45;;;;;;;0.60;0.60;;;;;;;0.33;94.46;97208.56;29371;210;64009;-54
2023/03/16 01:18:17;;;;;;;0.70;0.70;;;;;;;0.36;94.03;97203.78;29373;274;63009;-55
2023/03/16 01:18:48;;;;;;;0.60;0.60;;;;;;;0.37;93.91;97203.56;29373;253;63005;-55
2023/03/16 01:19:21;;;;;;;0.60;0.60;;;;;;;0.38;93.65;97205.19;29373;262;63023;-54
2023/03/16 01:19:53;;;;;;;0.65;0.65;;;;;;;0.37;93.69;97208.91;29373;229;63005;-54
2023/03/16 01:20:25;;;;;;;0.60;0.60;;;;;;;0.38;93.61;97204.37;29373;222;63018;-54
2023/03/16 01:20:56;;;;;;;1.05;1.05;;;;;;;0.37;93.80;97197.41;29373;290;63005;-54
2023/03/16 01:21:28;;;;;;;0.60;0.60;;;;;;;0.37;93.65;97200.88;29373;226;63009;-53
2023/03/16 01:22:01;;;;;;;0.60;0.60;;;;;;;0.36;93.89;97201.94;29373;197;63004;-54
2023/03/16 01:22:32;;;;;;;0.68;0.68;;;;;;;0.36;93.89;97204.59;29373;197;63009;-54
2023/03/16 01:23:04;;;;;;;0.75;0.75;;;;;;;0.37;93.77;97208.09;29371;219;64009;-54
2023/03/16 01:23:36;;;;;;;0.60;0.60;;;;;;;0.35;93.83;97208.31;29373;211;63008;-54
2023/03/16 01:24:09;;;;;;;0.70;0.70;;;;;;;0.36;93.95;97201.94;29373;229;63004;-54
2023/03/16 01:24:44;;;;;;;0.60;0.60;;;;;;;0.34;93.60;97204.03;29373;197;63009;-54
2023/03/16 01:25:19;;;;;;;0.70;0.70;;;;;;;0.32;93.93;97206.09;29373;214;63005;-54
2023/03/16 01:25:53;;;;;;;0.70;0.70;;;;;;;0.31;94.21;97209.81;29373;206;63022;-54
2023/03/16 01:26:24;;;;;;;0.60;0.60;;;;;;;0.29;93.97;97195.84;29373;204;63005;-54
2023/03/16 01:26:56;;;;;;;0.60;0.60;;;;;;;0.29;94.37;97203.87;29371;247;64013;-54
2023/03/16 01:27:27;;;;;;;0.60;0.60;;;;;;;0.26;94.47;97204.31;29373;220;63005;-54
2023/03/16 01:27:58;;;;;;;0.60;0.60;;;;;;;0.27;94.44;97208.59;29373;238;63009;-54
2023/03/16 01:28:31;;;;;;;0.60;0.60;;;;;;;0.27;94.40;97203.28;29371;227;64009;-54
2023/03/16 01:29:03;;;;;;;0.68;0.68;;;;;;;0.26;94.37;97206.97;29373;265;63009;-54
2023/03/16 01:29:34;;;;;;;0.60;0.60;;;;;;;0.25;94.64;97206.16;29373;198;63004;-54
2023/03/16 01:30:07;;;;;;;0.60;0.60;;;;;;;0.27;94.61;97208.59;29373;211;63009;-65
2023/03/16 01:30:42;;;;;;;0.60;0.60;;;;;;;0.28;94.86;97208.38;29372;260;63004;-54
2023/03/16 01:31:14;;;;;;;0.70;0.70;;;;;;;0.29;94.56;97204.69;29373;250;63014;-54
2023/03/16 01:31:49;;;;;;;0.60;0.60;;;;;;;0.31;94.69;97204.47;29373;256;63010;-55
2023/03/16 01:32:20;;;;;;;0.70;0.70;;;;;;;0.31;94.20;97207.12;29373;247;63009;-54
2023/03/16 01:32:51;;;;;;;0.60;0.60;;;;;;;0.32;93.90;97208.75;29371;219;64009;-55
2023/03/16 01:33:25;;;;;;;0.60;0.60;;;;;;;0.30;93.45;97202.84;29373;220;63009;-55
2023/03/16 01:33:57;;;;;;;0.60;0.60;;;;;;;0.31;93.55;97201.78;29373;235;63005;-54
2023/03/16 01:34:29;;;;;;;0.70;0.70;;;;;;;0.30;93.32;97195.63;29373;284;63013;-54
2023/03/16 01:35:00;;;;;;;0.60;0.60;;;;;;;0.30;93.17;97200.16;29373;350;63005;-54
2023/03/16 01:35:31;;;;;;;0.60;0.60;;;;;;;0.29;93.20;97201.19;29373;273;63009;-54
2023/03/16 01:36:09;;;;;;;0.60;0.60;;;;;;;0.28;93.15;97194.22;29373;286;63004;-54
2023/03/16 01:36:43;;;;;;;0.70;0.70;;;;;;;0.32;93.08;97198.09;29373;205;63009;-54
2023/03/16 01:37:14;;;;;;;0.60;0.60;;;;;;;0.32;92.50;97198.09;29373;251;63010;-55
2023/03/16 01:37:45;;;;;;;0.60;0.60;;;;;;;0.31;92.50;97199.13;29371;206;64013;-54
2023/03/16 01:38:16;;;;;;;0.70;0.70;;;;;;;0.32;92.62;97200.75;29373;203;63004;-53
2023/03/16 01:38:48;;;;;;;0.60;0.60;;;;;;;0.34;92.32;97193.34;29371;237;64013;-54
2023/03/16 01:39:19;;;;;;;0.60;0.60;;;;;;;0.35;91.93;97189.63;29373;218;63004;-54
2023/03/16 01:39:51;;;;;;;0.60;0.60;;;;;;;0.36;91.99;97201.94;29373;268;63005;-55
2023/03/16 01:40:22;;;;;;;0.60;0.60;;;;;;;0.36;91.92;97191.25;29373;320;63005;-55
2023/03/16 01:40:54;;;;;;;0.60;0.60;;;;;;;0.33;91.75;97197.06;29373;318;63028;-55
2023/03/16 01:41:26;;;;;;;0.60;0.60;;;;;;;0.30;91.91;97194.81;29373;219;63005;-54
2023/03/16 01:41:57;;;;;;;0.62;0.62;;;;;;;0.26;92.05;97189.09;29371;246;64013;-54
2023/03/16 01:42:29;;;;;;;0.65;0.65;;;;;;;0.25;92.12;97189.31;29373;281;63005;-56
2023/03/16 01:43:03;;;;;;;0.70;0.70;;;;;;;0.22;92.31;97195.09;29373;220;63009;-54
2023/03/16 01:43:36;;;;;;;0.68;0.68;;;;;;;0.15;92.46;97195.16;29373;218;63004;-54
2023/03/16 01:44:21;;;;;;;0.70;0.70;;;;;;;0.12;92.63;97200.12;29373;223;63009;-54
2023/03/16 01:45:04;;;;;;;0.60;0.60;;;;;;;0.08;93.08;97194.41;29373;223;63004;-54
2023/03/16 01:46:16;;;;;;;0.60;0.60;;;;;;;0.09;93.18;97200.53;29373;215;63008;-54
2023/03/16 01:46:48;;;;;;;0.60;0.60;;;;;;;0.06;93.23;97196.47;29393;233;64014;-54
2023/03/16 01:47:19;;;;;;;0.70;0.70;;;;;;;0.04;93.29;97193.19;29395;266;63005;-54
2023/03/16 01:47:50;;;;;;;0.70;0.70;;;;;;;0.03;93.45;97188.06;29373;210;63009;-55
2023/03/16 01:48:25;;;;;;;0.70;0.70;;;;;;;0.04;93.39;97197.72;29373;209;63005;-54
2023/03/16 01:49:23;;;;;;;0.60;0.60;;;;;;;0.08;93.16;97189.06;29373;286;63017;-54
2023/03/16 01:49:56;;;;;;;0.60;0.60;;;;;;;0.10;92.76;97196.84;29373;216;63010;-54
2023/03/16 01:50:28;;;;;;;0.60;0.60;;;;;;;0.08;92.67;97191.72;29373;208;63016;-54
2023/03/16 01:50:59;;;;;;;0.65;0.65;;;;;;;0.05;92.84;97191.34;29373;206;63004;-54
2023/03/16 01:51:57;;;;;;;0.60;0.60;;;;;;;-0.01;92.72;97188.53;29371;222;64013;-55
2023/03/16 01:52:32;;;;;;;0.65;0.65;;;;;;;-0.01;92.78;97185.88;29373;196;63007;-54
2023/03/16 01:53:04;;;;;;;0.70;0.70;;;;;;;-0.02;92.49;97194.91;29371;242;64013;-54
2023/03/16 01:53:39;;;;;;;0.70;0.70;;;;;;;-0.04;92.64;97190.81;29373;231;63004;-55
2023/03/16 01:54:26;;;;;;;0.60;0.60;;;;;;;-0.05;93.04;97189.19;29373;197;63009;-55
2023/03/16 01:55:11;;;;;;;0.60;0.60;;;;;;;-0.09;93.44;97194.16;29373;218;63006;-54
2023/03/16 01:55:43;;;;;;;0.70;0.70;;;;;;;-0.10;93.68;97189.03;29373;217;63009;-54
2023/03/16 01:56:22;;;;;;;0.60;0.60;;;;;;;-0.14;93.72;97188.63;29373;216;63005;-55
2023/03/16 01:57:07;;;;;;;0.70;0.70;;;;;;;-0.16;93.67;97187.22;29371;263;64013;-56
2023/03/16 01:57:42;;;;;;;0.60;0.60;;;;;;;-0.21;93.96;97195.06;29373;248;63005;-63
2023/03/16 01:58:14;;;;;;;0.60;0.60;;;;;;;-0.24;94.40;97195.50;29373;227;63009;-55
2023/03/16 01:58:46;;;;;;;1.25;1.25;;;;;;;-0.26;94.51;97193.03;29373;227;63010;-54
2023/03/16 01:59:21;;;;;;;0.60;0.60;;;;;;;-0.26;94.73;97190.38;29371;250;64013;-54
2023/03/16 02:00:09;;;;;;;0.60;0.60;;;;;;;-0.28;94.54;97194.28;29373;224;63004;-54
2023/03/16 02:00:41;;;;;;;0.70;0.70;;;;;;;-0.28;94.91;97188.94;29373;239;63008;-55
2023/03/16 02:01:13;;;;;;;2.00;1.90;;;;;;;-0.27;95.13;97190.59;29373;214;63004;-54
2023/03/16 02:01:46;;;;;;;0.70;0.70;;;;;;;-0.26;95.28;97189.56;29373;214;63009;-55
2023/03/16 02:02:22;;;;;;;0.70;0.70;;;;;;;-0.23;95.32;97181.94;29373;255;63005;-63
2023/03/16 02:03:01;;;;;;;0.70;0.70;;;;;;;-0.18;95.41;97186.63;29371;198;64014;-62
2023/03/16 02:03:33;;;;;;;0.60;0.60;;;;;;;-0.19;95.10;97185.00;29373;249;63005;-55
2023/03/16 02:04:35;;;;;;;0.70;0.70;;;;;;;-0.16;94.85;97180.03;29373;209;63009;-55
2023/03/16 02:05:30;;;;;;;0.70;0.70;;;;;;;-0.22;94.59;97183.56;29373;237;63005;-54
2023/03/16 02:06:14;;;;;;;0.70;0.70;;;;;;;-0.21;94.17;97174.53;29371;198;64013;-55
2023/03/16 02:06:46;;;;;;;1.05;1.05;;;;;;;-0.21;93.89;97174.53;29373;197;63006;-54
2023/03/16 02:07:21;;;;;;;2.25;2.15;;;;;;;-0.21;93.98;97171.06;29373;262;63009;-61
2023/03/16 02:07:57;;;;;;;0.70;0.70;;;;;;;-0.25;93.79;97177.84;29373;196;63004;-54
2023/03/16 02:08:30;;;;;;;0.60;0.60;;;;;;;-0.30;94.50;97186.50;29373;222;63008;-62
2023/03/16 02:09:02;;;;;;;0.68;0.68;;;;;;;-0.31;94.34;97182.19;29371;202;64009;-54
2023/03/16 02:09:41;;;;;;;0.60;0.60;;;;;;;-0.32;94.38;97183.22;29373;197;63023;-63
2023/03/16 02:10:16;;;;;;;0.70;0.70;;;;;;;-0.29;94.27;97187.31;29373;268;63008;-54
2023/03/16 02:10:48;;;;;;;0.60;0.60;;;;;;;-0.29;94.28;97176.66;29373;216;63015;-55
2023/03/16 02:11:21;;;;;;;0.60;0.60;;;;;;;-0.30;94.39;97170.50;29373;262;63005;-55
2023/03/16 02:11:54;;;;;;;0.60;0.60;;;;;;;-0.30;94.47;97175.84;29374;261;63009;-55
2023/03/16 02:12:26;;;;;;;2.25;2.15;;;;;;;-0.24;94.62;97169.62;29371;263;64009;-56
2023/03/16 02:12:57;;;;;;;0.70;0.70;;;;;;;-0.22;93.95;97169.41;29371;259;64013;-55
2023/03/16 02:13:32;;;;;;;0.75;0.75;;;;;;;-0.22;93.55;97169.41;29373;238;63004;-55
2023/03/16 02:14:10;;;;;;;0.70;0.70;;;;;;;-0.26;93.38;97177.03;29373;224;63009;-62
2023/03/16 02:14:41;;;;;;;0.70;0.70;;;;;;;-0.30;93.47;97170.50;29373;222;63004;-54
2023/03/16 02:15:13;;;;;;;0.70;0.70;;;;;;;-0.33;93.55;97170.94;29373;254;63009;-55
2023/03/16 02:15:45;;;;;;;0.70;0.70;;;;;;;-0.32;93.92;97169.91;29371;248;64008;-56
2023/03/16 02:16:18;;;;;;;0.70;0.70;;;;;;;-0.29;94.05;97172.13;29373;233;63008;-55
2023/03/16 02:16:52;;;;;;;0.60;0.60;;;;;;;-0.31;93.77;97176.88;29373;232;63016;-54
2023/03/16 02:17:27;;;;;;;0.60;0.60;;;;;;;-0.31;94.28;97174.19;29373;251;63009;-54
2023/03/16 02:17:59;;;;;;;0.60;0.60;;;;;;;-0.32;94.23;97167.22;29371;223;64009;-55
2023/03/16 02:18:31;;;;;;;0.70;0.70;;;;;;;-0.31;94.59;97174.19;29373;210;63009;-55
2023/03/16 02:19:06;;;;;;;0.70;0.70;;;;;;;-0.32;94.63;97174.41;29373;250;63005;-54
2023/03/16 02:20:14;;;;;;;0.60;0.60;;;;;;;-0.39;94.70;97171.81;29373;232;63009;-62
2023/03/16 02:21:28;;;;;;;0.70;0.70;;;;;;;-0.42;94.79;97167.75;29373;203;63017;-54
2023/03/16 02:22:06;;;;;;;0.60;0.60;;;;;;;-0.43;95.23;97168.78;29373;237;63009;-53
2023/03/16 02:22:43;;;;;;;0.70;0.70;;;;;;;-0.45;95.09;97162.03;29373;216;63004;-54
2023/03/16 02:23:18;;;;;;;0.70;0.70;;;;;;;-0.46;95.19;97160.38;29371;222;64013;-54
2023/03/16 02:23:50;;;;;;;0.60;0.60;;;;;;;-0.47;95.16;97164.09;29372;220;63004;-58
2023/03/16 02:24:23;;;;;;;1.05;1.05;;;;;;;-0.39;95.04;97166.50;29371;300;64014;-56
2023/03/16 02:24:54;;;;;;;0.65;0.65;;;;;;;-0.35;94.63;97159.69;29373;225;63018;-54
2023/03/16 02:25:37;;;;;;;0.70;0.70;;;;;;;-0.36;94.16;97156.22;29371;234;64014;-54
2023/03/16 02:26:37;;;;;;;0.65;0.65;;;;;;;-0.43;94.25;97158.09;29373;230;63005;-54
2023/03/16 02:27:12;;;;;;;0.68;0.68;;;;;;;-0.44;94.70;97158.31;29371;213;64013;-55
2023/03/16 02:28:26;;;;;;;0.70;0.70;;;;;;;-0.35;93.76;97165.81;29373;259;63005;-55
2023/03/16 02:29:29;;;;;;;0.65;0.65;;;;;;;-0.38;93.54;97158.28;29371;232;64013;-55
2023/03/16 02:30:13;;;;;;;0.70;0.70;;;;;;;-0.38;93.78;97157.47;29373;215;63004;-54
2023/03/16 02:30:46;;;;;;;0.70;0.70;;;;;;;-0.38;93.84;97158.28;29371;239;64013;-62
2023/03/16 02:31:21;;;;;;;0.70;0.70;;;;;;;-0.41;94.04;97157.87;29373;229;63004;-61
2023/03/16 02:31:53;;;;;;;0.60;0.60;;;;;;;-0.45;93.89;97167.34;29373;219;63024;-55
2023/03/16 02:32:28;;;;;;;0.70;0.70;;;;;;;-0.48;94.08;97162.44;29372;222;63005;-55
2023/03/16 02:33:00;;;;;;;0.60;0.60;;;;;;;-0.49;94.13;97166.16;29373;234;63009;-54
2023/03/16 02:33:33;;;;;;;0.60;0.60;;;;;;;-0.49;93.92;97160.81;29371;228;64009;-54
2023/03/16 02:34:05;;;;;;;0.70;0.70;;;;;;;-0.51;94.05;97162.88;29373;263;63009;-57
2023/03/16 02:34:38;;;;;;;0.80;0.80;;;;;;;-0.48;94.37;97167.78;29373;281;63005;-55
2023/03/16 02:35:11;;;;;;;0.70;0.70;;;;;;;-0.47;94.61;97164.09;29373;304;63009;-61
2023/03/16 02:35:43;;;;;;;0.70;0.70;;;;;;;-0.49;94.43;97166.16;29373;291;63004;-55
2023/03/16 02:36:19;;;;;;;0.60;0.60;;;;;;;-0.45;94.29;97167.34;29373;222;63009;-54
2023/03/16 02:36:52;;;;;;;0.70;0.70;;;;;;;-0.48;93.85;97165.94;29373;263;63004;-54
2023/03/16 02:38:38;;;;;;;0.60;0.60;;;;;;;-0.49;93.93;97166.16;29371;211;64008;-54
2023/03/16 02:39:09;;;;;;;0.60;0.60;;;;;;;-0.49;94.36;97166.16;29373;211;63009;-55
2023/03/16 02:39:42;;;;;;;0.62;0.62;;;;;;;-0.49;94.59;97166.16;29373;211;63005;-55
2023/03/16 02:40:27;;;;;;;0.70;0.70;;;;;;;-0.50;94.96;97164.50;29373;207;63009;-55
2023/03/16 02:41:20;;;;;;;0.60;0.60;;;;;;;-0.51;94.99;97168.22;29373;225;63005;-55
2023/03/16 02:41:52;;;;;;;0.70;0.70;;;;;;;-0.45;95.15;97165.50;29373;197;63009;-54
2023/03/16 02:42:25;;;;;;;0.65;0.65;;;;;;;-0.47;94.23;97164.09;29373;196;63004;-55
2023/03/16 02:43:05;;;;;;;0.60;0.60;;;;;;;-0.52;94.06;97161.25;29373;245;63009;-54
2023/03/16 02:43:41;;;;;;;0.65;0.65;;;;;;;-0.55;94.03;97161.69;29373;227;63004;-55
2023/03/16 02:44:28;;;;;;;5.00;4.80;;;;;;;-0.54;94.06;97171.31;29371;245;64013;-55
2023/03/16 02:45:00;;;;;;;0.70;0.70;;;;;;;-0.56;94.28;97165.37;29373;220;63004;-54
2023/03/16 02:45:59;;;;;;;0.80;0.80;;;;;;;-0.51;94.46;97160.22;29372;233;63008;-55
2023/03/16 02:46:34;;;;;;;0.60;0.60;;;;;;;-0.47;93.81;97158.75;29373;216;63001;-55
2023/03/16 02:47:14;;;;;;;0.60;0.60;;;;;;;-0.45;93.89;97154.03;29373;227;63009;-55
2023/03/16 02:47:47;;;;;;;0.70;0.70;;;;;;;-0.46;93.95;97150.53;29373;197;63005;-54
2023/03/16 02:48:45;;;;;;;0.70;0.70;;;;;;;-0.50;93.90;97160.00;29373;243;63009;-55
2023/03/16 02:49:24;;;;;;;0.60;0.60;;;;;;;-0.52;94.18;97156.72;29371;220;64009;-55
2023/03/16 02:49:55;;;;;;;0.60;0.60;;;;;;;-0.53;93.98;97148.94;29373;202;63009;-55